createdAt,value
2019-04-23T00:02:04.229Z,14.47
2019-04-23T00:04:31.471Z,14.43
2019-04-23T00:07:07.309Z,14.39
2019-04-23T00:09:33.030Z,14.60
2019-04-23T00:12:11.866Z,14.37
2019-04-23T00:14:41.115Z,14.32
2019-04-23T00:17:04.711Z,14.30
2019-04-23T00:19:30.985Z,14.28
2019-04-23T00:22:20.635Z,14.31
2019-04-23T00:27:40.528Z,14.24
2019-04-23T00:30:10.472Z,14.24
2019-04-23T00:32:28.628Z,14.26
2019-04-23T00:35:02.625Z,14.27
2019-04-23T00:39:56.509Z,14.29
2019-04-23T00:44:57.183Z,14.27
2019-04-23T00:47:32.961Z,14.21
2019-04-23T00:50:06.403Z,14.21
2019-04-23T00:55:06.313Z,14.15
2019-04-23T01:05:08.553Z,14.08
2019-04-23T01:07:34.933Z,14.03
2019-04-23T01:10:10.613Z,14.03
2019-04-23T01:12:38.408Z,14.00
2019-04-23T01:15:07.591Z,13.97
2019-04-23T01:17:39.500Z,13.98
2019-04-23T01:20:16.193Z,13.97
2019-04-23T01:22:25.549Z,13.93
2019-04-23T01:25:07.287Z,14.18
2019-04-23T01:30:19.652Z,13.85
2019-04-23T01:33:10.992Z,13.86
2019-04-23T01:35:32.921Z,13.92
2019-04-23T01:37:50.549Z,13.86
2019-04-23T01:40:28.823Z,13.84
2019-04-23T01:42:56.907Z,13.83
2019-04-23T01:45:31.304Z,13.82
2019-04-23T01:47:58.330Z,13.77
2019-04-23T01:50:37.328Z,13.76
2019-04-23T01:55:31.472Z,13.74
2019-04-23T01:58:07.082Z,13.67
2019-04-23T02:02:57.855Z,13.83
2019-04-23T02:10:32.920Z,13.88
2019-04-23T02:12:56.891Z,13.85
2019-04-23T02:15:23.067Z,13.84
2019-04-23T02:17:53.182Z,13.86
2019-04-23T02:20:23.943Z,13.85
2019-04-23T02:23:00.021Z,13.86
2019-04-23T02:25:37.744Z,13.87
2019-04-23T02:28:03.154Z,13.86
2019-04-23T02:30:40.912Z,13.85
2019-04-23T02:38:00.609Z,13.75
2019-04-23T02:43:09.253Z,13.67
2019-04-23T02:45:35.181Z,13.66
2019-04-23T02:48:01.814Z,13.63
2019-04-23T02:52:56.163Z,13.58
2019-04-23T02:55:31.443Z,13.54
2019-04-23T02:57:54.154Z,13.50
2019-04-23T03:00:29.132Z,13.45
2019-04-23T03:05:40.303Z,13.38
2019-04-23T03:07:47.478Z,13.37
2019-04-23T03:10:16.115Z,13.35
2019-04-23T03:12:51.008Z,13.31
2019-04-23T03:15:28.386Z,13.28
2019-04-23T03:20:57.394Z,13.18
2019-04-23T03:23:32.090Z,13.11
2019-04-23T03:25:59.735Z,13.06
2019-04-23T03:28:36.105Z,13.01
2019-04-23T03:38:41.826Z,12.93
2019-04-23T03:46:12.206Z,12.85
2019-04-23T03:50:43.490Z,12.84
2019-04-23T03:53:40.760Z,12.82
2019-04-23T03:55:58.714Z,12.84
2019-04-23T04:03:42.261Z,12.81
2019-04-23T04:08:20.286Z,12.83
2019-04-23T04:10:54.238Z,12.86
2019-04-23T04:13:22.865Z,12.85
2019-04-23T04:16:00.361Z,12.87
2019-04-23T04:18:30.886Z,12.88
2019-04-23T04:20:53.836Z,12.92
2019-04-23T04:25:48.741Z,12.91
2019-04-23T04:28:17.773Z,12.91
2019-04-23T04:30:48.167Z,12.90
2019-04-23T04:33:41.331Z,12.88
2019-04-23T04:36:02.160Z,12.94
2019-04-23T04:38:40.278Z,12.92
2019-04-23T04:40:50.652Z,12.94
2019-04-23T04:46:04.976Z,13.01
2019-04-23T04:48:23.201Z,13.06
2019-04-23T04:51:00.470Z,13.10
2019-04-23T04:53:38.487Z,13.16
2019-04-23T05:03:23.983Z,13.27
2019-04-23T05:08:23.871Z,13.29
2019-04-23T05:15:56.350Z,13.35
2019-04-23T05:18:24.099Z,13.33
2019-04-23T05:20:53.400Z,13.40
2019-04-23T05:23:25.561Z,13.44
2019-04-23T05:25:49.683Z,13.50
2019-04-23T05:28:28.505Z,13.54
2019-04-23T05:30:51.838Z,13.54
2019-04-23T05:33:18.408Z,13.05
2019-04-23T05:36:05.988Z,13.56
2019-04-23T05:43:38.444Z,13.74
2019-04-23T05:50:50.751Z,13.86
2019-04-23T05:53:13.436Z,13.89
2019-04-23T05:55:45.939Z,13.93
2019-04-23T05:58:16.513Z,13.94
2019-04-23T06:00:45.026Z,13.95
2019-04-23T06:08:14.697Z,14.13
2019-04-23T06:10:40.757Z,14.19
2019-04-23T06:13:15.654Z,14.25
2019-04-23T06:15:41.704Z,14.29
2019-04-23T06:20:46.875Z,14.37
2019-04-23T06:23:14.483Z,14.40
2019-04-23T06:25:52.097Z,14.48
2019-04-23T06:28:14.487Z,14.52
2019-04-23T06:30:48.987Z,14.59
2019-04-23T06:33:14.572Z,14.68
2019-04-23T06:35:39.427Z,14.72
2019-04-23T06:40:35.826Z,14.80
2019-04-23T06:43:04.702Z,14.86
2019-04-23T06:48:09.116Z,14.98
2019-04-23T06:50:47.610Z,15.01
2019-04-23T06:52:58.882Z,15.03
2019-04-23T06:55:35.824Z,15.08
2019-04-23T06:58:06.907Z,15.19
2019-04-23T07:00:34.180Z,15.24
2019-04-23T07:03:08.826Z,15.30
2019-04-23T07:06:05.015Z,15.39
2019-04-23T07:08:34.458Z,15.43
2019-04-23T07:10:57.625Z,15.49
2019-04-23T07:13:20.608Z,15.62
2019-04-23T07:15:58.458Z,15.64
2019-04-23T07:18:22.613Z,15.74
2019-04-23T07:20:51.177Z,15.76
2019-04-23T07:23:19.410Z,15.90
2019-04-23T07:26:03.748Z,15.93
2019-04-23T07:28:21.423Z,15.98
2019-04-23T07:30:51.577Z,16.06
2019-04-23T07:33:18.946Z,16.10
2019-04-23T07:35:45.232Z,16.14
2019-04-23T07:41:23.762Z,16.29
2019-04-23T07:43:54.750Z,16.31
2019-04-23T07:46:31.868Z,16.40
2019-04-23T07:48:56.427Z,16.49
2019-04-23T07:51:27.629Z,16.58
2019-04-23T07:54:01.409Z,16.62
2019-04-23T07:56:45.639Z,16.76
2019-04-23T07:58:52.553Z,16.81
2019-04-23T08:01:23.040Z,16.92
2019-04-23T08:03:57.680Z,17.00
2019-04-23T08:06:16.469Z,17.03
2019-04-23T08:13:57.002Z,17.29
2019-04-23T08:16:32.976Z,17.36
2019-04-23T08:24:02.240Z,17.66
2019-04-23T08:32:03.570Z,17.90
2019-04-23T08:39:34.013Z,18.15
2019-04-23T08:44:44.949Z,18.27
2019-04-23T08:47:05.330Z,18.34
2019-04-23T08:49:40.408Z,18.41
2019-04-23T08:52:08.209Z,18.51
2019-04-23T08:54:46.777Z,18.65
2019-04-23T08:57:02.633Z,18.82
2019-04-23T09:02:18.874Z,19.11
2019-04-23T09:04:31.299Z,19.31
2019-04-23T09:07:04.063Z,19.47
2019-04-23T09:11:55.371Z,19.86
2019-04-23T09:14:28.280Z,20.15
2019-04-23T09:16:58.369Z,20.51
2019-04-23T09:22:04.116Z,21.43
2019-04-23T09:24:29.582Z,21.78
2019-04-23T09:26:58.714Z,22.22
2019-04-23T09:29:32.561Z,22.41
2019-04-23T09:34:57.099Z,22.98
2019-04-23T09:40:07.047Z,23.52
2019-04-23T09:42:47.893Z,23.69
2019-04-23T09:45:23.327Z,23.84
2019-04-23T09:47:58.782Z,24.18
2019-04-23T09:50:33.465Z,24.38
2019-04-23T09:53:06.672Z,24.55
2019-04-23T09:55:32.452Z,24.83
2019-04-23T09:57:59.752Z,24.99
2019-04-23T10:00:31.673Z,25.14
2019-04-23T10:02:41.173Z,25.30
2019-04-23T10:05:07.288Z,25.40
2019-04-23T10:07:36.276Z,25.49
2019-04-23T10:09:53.615Z,25.09
2019-04-23T10:12:22.118Z,25.73
2019-04-23T10:14:59.259Z,25.89
2019-04-23T10:17:20.197Z,26.02
2019-04-23T10:19:48.651Z,26.08
2019-04-23T10:22:17.390Z,26.21
2019-04-23T10:24:45.495Z,26.26
2019-04-23T10:27:14.872Z,26.25
2019-04-23T10:29:43.671Z,26.25
2019-04-23T10:32:11.698Z,26.24
2019-04-23T10:34:52.429Z,26.19
2019-04-23T10:37:09.456Z,26.16
2019-04-23T10:39:41.307Z,26.32
2019-04-23T10:42:08.035Z,26.21
2019-04-23T10:44:38.097Z,26.41
2019-04-23T10:47:54.001Z,26.39
2019-04-23T10:50:40.299Z,26.42
2019-04-23T10:53:09.843Z,26.36
2019-04-23T10:55:35.643Z,26.44
2019-04-23T10:58:01.459Z,26.41
2019-04-23T11:00:30.794Z,26.47
2019-04-23T11:03:14.160Z,26.52
2019-04-23T11:05:42.960Z,26.59
2019-04-23T11:07:53.673Z,26.81
2019-04-23T11:10:26.100Z,26.89
2019-04-23T11:12:50.751Z,26.83
2019-04-23T11:15:44.252Z,26.91
2019-04-23T11:17:53.073Z,26.90
2019-04-23T11:20:33.824Z,26.90
2019-04-23T11:22:57.495Z,26.93
2019-04-23T11:25:34.861Z,27.04
2019-04-23T11:28:02.902Z,26.98
2019-04-23T11:30:31.838Z,27.03
2019-04-23T11:33:05.013Z,27.04
2019-04-23T11:35:29.639Z,27.01
2019-04-23T11:38:40.956Z,27.08
2019-04-23T11:43:03.200Z,27.05
2019-04-23T11:45:32.303Z,27.18
2019-04-23T11:50:27.870Z,27.39
2019-04-23T11:55:35.773Z,27.39
2019-04-23T11:57:59.394Z,27.42
2019-04-23T12:00:31.790Z,27.48
2019-04-23T12:02:54.322Z,27.41
2019-04-23T12:05:32.061Z,27.52
2019-04-23T12:08:26.808Z,27.33
2019-04-23T12:10:54.355Z,27.25
2019-04-23T12:13:21.460Z,27.24
2019-04-23T12:15:50.580Z,27.26
2019-04-23T12:18:21.882Z,27.23
2019-04-23T12:20:57.375Z,27.34
2019-04-23T12:23:27.379Z,27.31
2019-04-23T12:25:47.592Z,27.41
2019-04-23T12:28:16.523Z,27.51
2019-04-23T12:30:45.379Z,27.48
2019-04-23T12:33:20.340Z,27.50
2019-04-23T12:35:40.435Z,27.39
2019-04-23T12:40:49.274Z,27.37
2019-04-23T12:43:18.322Z,27.27
2019-04-23T12:45:42.472Z,27.29
2019-04-23T12:48:31.422Z,27.22
2019-04-23T12:50:49.875Z,27.13
2019-04-23T12:53:23.700Z,26.99
2019-04-23T12:55:43.945Z,27.09
2019-04-23T12:58:14.652Z,27.10
2019-04-23T13:00:36.483Z,26.96
2019-04-23T13:03:12.492Z,27.14
2019-04-23T13:05:32.682Z,27.12
2019-04-23T13:08:15.801Z,27.19
2019-04-23T13:10:49.582Z,27.34
2019-04-23T13:13:16.031Z,27.38
2019-04-23T13:18:15.421Z,27.48
2019-04-23T13:23:12.146Z,27.63
2019-04-23T13:25:49.653Z,27.50
2019-04-23T13:35:57.954Z,27.63
2019-04-23T13:38:19.545Z,27.61
2019-04-23T13:40:53.134Z,27.70
2019-04-23T13:43:14.982Z,27.81
2019-04-23T13:48:07.027Z,27.82
2019-04-23T13:50:42.134Z,27.81
2019-04-23T13:55:34.885Z,27.80
2019-04-23T14:03:30.747Z,27.90
2019-04-23T14:06:01.792Z,27.79
2019-04-23T14:08:43.526Z,27.81
2019-04-23T14:10:56.599Z,27.82
2019-04-23T14:20:58.983Z,27.54
2019-04-23T14:26:20.777Z,27.42
2019-04-23T14:28:28.921Z,27.27
2019-04-23T14:30:59.266Z,27.25
2019-04-23T14:33:24.876Z,27.14
2019-04-23T14:35:50.913Z,27.01
2019-04-23T14:41:05.990Z,27.08
2019-04-23T14:43:25.826Z,27.12
2019-04-23T14:46:33.753Z,27.03
2019-04-23T14:48:20.985Z,27.12
2019-04-23T14:50:51.965Z,27.14
2019-04-23T14:53:24.686Z,27.20
2019-04-23T14:56:00.492Z,27.28
2019-04-23T15:01:07.589Z,27.41
2019-04-23T15:06:05.035Z,27.38
2019-04-23T15:11:08.222Z,27.22
2019-04-23T15:13:25.283Z,27.12
2019-04-23T15:16:00.727Z,27.16
2019-04-23T15:21:34.308Z,27.08
2019-04-23T15:24:00.466Z,27.10
2019-04-23T15:28:13.192Z,26.73
2019-04-23T15:31:14.994Z,26.84
2019-04-23T15:33:49.168Z,26.76
2019-04-23T15:36:30.533Z,26.63
2019-04-23T15:41:07.520Z,26.54
2019-04-23T15:43:30.666Z,26.59
2019-04-23T15:46:12.946Z,26.55
2019-04-23T15:48:31.323Z,26.41
2019-04-23T15:51:11.780Z,26.26
2019-04-23T15:53:26.730Z,26.12
2019-04-23T15:56:13.750Z,25.77
2019-04-23T15:58:37.147Z,25.59
2019-04-23T16:03:21.537Z,25.37
2019-04-23T16:05:50.960Z,25.07
2019-04-23T16:09:00.965Z,25.00
2019-04-23T16:11:30.720Z,24.92
2019-04-23T16:14:04.799Z,24.83
2019-04-23T16:16:28.202Z,24.81
2019-04-23T16:19:05.928Z,24.66
2019-04-23T16:24:01.086Z,24.22
2019-04-23T16:26:32.570Z,24.10
2019-04-23T16:29:16.237Z,23.88
2019-04-23T16:34:05.088Z,23.53
2019-04-23T16:36:26.810Z,23.44
2019-04-23T16:41:25.601Z,23.15
2019-04-23T16:43:56.906Z,22.99
2019-04-23T16:49:15.278Z,22.96
2019-04-23T16:51:24.742Z,22.84
2019-04-23T16:53:54.146Z,22.77
2019-04-23T16:58:59.556Z,22.70
2019-04-23T17:01:19.862Z,22.75
2019-04-23T17:04:13.791Z,22.73
2019-04-23T17:06:16.932Z,22.79
2019-04-23T17:08:59.866Z,22.80
2019-04-23T17:11:20.520Z,22.76
2019-04-23T17:13:52.088Z,22.82
2019-04-23T17:18:48.703Z,22.94
2019-04-23T17:21:11.788Z,22.93
2019-04-23T17:24:07.975Z,22.94
2019-04-23T17:26:19.015Z,22.97
2019-04-23T17:28:44.440Z,22.93
2019-04-23T17:31:30.787Z,22.93
2019-04-23T17:33:45.119Z,22.96
2019-04-23T17:44:21.927Z,22.57
2019-04-23T17:46:46.641Z,22.46
2019-04-23T17:49:13.098Z,22.39
2019-04-23T17:51:37.754Z,22.24
2019-04-23T17:54:14.299Z,22.15
2019-04-23T17:56:47.710Z,21.98
2019-04-23T18:01:40.979Z,21.73
2019-04-23T18:04:10.389Z,21.65
2019-04-23T18:06:48.424Z,21.56
2019-04-23T18:11:35.836Z,21.38
2019-04-23T18:14:03.829Z,21.28
2019-04-23T18:16:41.965Z,21.08
2019-04-23T18:19:10.384Z,21.04
2019-04-23T18:22:01.825Z,20.99
2019-04-23T18:27:01.265Z,20.86
2019-04-23T18:32:22.164Z,20.71
2019-04-23T18:35:10.437Z,20.62
2019-04-23T18:37:20.426Z,20.51
2019-04-23T18:39:58.918Z,20.50
2019-04-23T18:44:52.158Z,20.28
2019-04-23T18:47:14.483Z,20.22
2019-04-23T18:49:55.286Z,20.24
2019-04-23T18:52:25.753Z,20.19
2019-04-23T18:54:42.129Z,20.06
2019-04-23T18:57:19.373Z,19.98
2019-04-23T19:02:24.129Z,19.90
2019-04-23T19:05:15.381Z,19.94
2019-04-23T19:12:45.087Z,19.78
2019-04-23T19:20:18.017Z,19.66
2019-04-23T19:22:46.265Z,19.61
2019-04-23T19:27:40.542Z,19.53
2019-04-23T19:30:20.728Z,19.51
2019-04-23T19:32:43.749Z,19.46
2019-04-23T19:35:16.523Z,19.45
2019-04-23T19:37:53.756Z,19.41
2019-04-23T19:40:06.910Z,19.23
2019-04-23T19:42:43.987Z,19.26
2019-04-23T19:45:08.143Z,19.22
2019-04-23T19:47:45.971Z,19.21
2019-04-23T19:50:05.437Z,19.18
2019-04-23T19:53:14.232Z,19.22
2019-04-23T19:55:12.111Z,19.17
2019-04-23T19:57:42.372Z,17.67
2019-04-23T20:00:02.843Z,19.01
2019-04-23T20:02:55.212Z,18.93
2019-04-23T20:04:59.694Z,18.88
2019-04-23T20:07:52.213Z,18.79
2019-04-23T20:09:55.166Z,18.75
2019-04-23T20:12:38.765Z,18.78
2019-04-23T20:17:39.653Z,17.78
2019-04-23T20:20:18.815Z,18.68
2019-04-23T20:33:22.288Z,18.38
2019-04-23T20:35:13.082Z,18.30
2019-04-23T20:40:18.634Z,18.13
2019-04-23T20:42:46.926Z,18.12
2019-04-23T20:45:16.567Z,18.09
2019-04-23T20:47:48.432Z,18.04
2019-04-23T20:49:58.903Z,17.99
2019-04-23T20:52:41.653Z,17.91
2019-04-23T20:55:08.307Z,17.92
2019-04-23T20:57:45.672Z,17.87
2019-04-23T21:00:25.967Z,17.80
2019-04-23T21:05:21.549Z,17.75
2019-04-23T21:15:18.469Z,17.55
2019-04-23T21:22:51.898Z,17.36
2019-04-23T21:25:17.610Z,17.28
2019-04-23T21:30:48.779Z,17.21
2019-04-23T21:33:07.108Z,17.16
2019-04-23T21:35:43.972Z,17.10
2019-04-23T21:38:27.670Z,17.05
2019-04-23T21:43:08.827Z,16.93
2019-04-23T21:45:56.827Z,16.95
2019-04-23T21:48:13.258Z,16.87
2019-04-23T21:50:44.288Z,16.86
2019-04-23T21:53:06.824Z,16.84
2019-04-23T21:55:46.762Z,16.78
2019-04-23T21:58:19.675Z,16.78
2019-04-23T22:00:48.169Z,16.75
2019-04-23T22:03:09.872Z,16.70
2019-04-23T22:05:42.854Z,16.67
2019-04-23T22:08:08.350Z,16.69
2019-04-23T22:10:40.656Z,16.67
2019-04-23T22:15:44.900Z,16.60
2019-04-23T22:18:06.681Z,16.60
2019-04-23T22:23:11.354Z,16.57
2019-04-23T22:25:42.001Z,16.56
2019-04-23T22:28:05.847Z,16.50
2019-04-23T22:30:36.240Z,16.45
2019-04-23T22:35:44.603Z,16.29
2019-04-23T22:40:34.501Z,16.22
2019-04-23T22:45:40.311Z,16.12
2019-04-23T22:48:13.752Z,15.61
2019-04-23T22:50:38.891Z,16.04
2019-04-23T22:55:47.758Z,15.99
2019-04-23T23:00:34.265Z,15.89
2019-04-23T23:08:24.012Z,15.82
2019-04-23T23:10:56.645Z,15.79
2019-04-23T23:15:53.275Z,15.73
2019-04-23T23:20:52.685Z,15.73
2019-04-23T23:23:19.419Z,15.71
2019-04-23T23:28:22.695Z,15.78
2019-04-23T23:30:55.083Z,15.77
2019-04-23T23:33:17.245Z,15.81
2019-04-23T23:35:54.138Z,15.81
2019-04-23T23:38:28.882Z,15.86
2019-04-23T23:40:57.065Z,15.88
2019-04-23T23:45:57.499Z,15.89
2019-04-23T23:48:13.108Z,15.90
2019-04-23T23:50:55.092Z,15.88
2019-04-23T23:55:49.538Z,15.90
